createdAt,value
2023-03-10T00:00:39.962Z,72.80
2023-03-10T00:03:07.525Z,73.00
2023-03-10T00:05:34.630Z,73.10
2023-03-10T00:08:01.576Z,73.00
2023-03-10T00:10:28.654Z,73.10
2023-03-10T00:12:55.640Z,73.10
2023-03-10T00:15:23.657Z,73.20
2023-03-10T00:17:50.712Z,73.40
2023-03-10T00:20:17.931Z,73.70
2023-03-10T00:22:44.921Z,73.90
2023-03-10T00:25:12.819Z,73.90
2023-03-10T00:27:39.714Z,73.80
2023-03-10T00:30:07.579Z,73.80
2023-03-10T00:32:36.098Z,73.70
2023-03-10T00:35:05.404Z,73.50
2023-03-10T00:37:32.326Z,73.50
2023-03-10T00:39:59.240Z,73.60
2023-03-10T00:42:27.420Z,73.60
2023-03-10T00:44:54.412Z,73.60
2023-03-10T00:47:22.971Z,73.60
2023-03-10T00:49:50.865Z,73.80
2023-03-10T00:52:18.030Z,74.10
2023-03-10T00:54:45.155Z,74.30
2023-03-10T00:57:12.084Z,74.50
2023-03-10T00:59:50.131Z,74.60
2023-03-10T01:02:19.631Z,74.60
2023-03-10T01:04:47.547Z,74.70
2023-03-10T01:07:14.577Z,74.60
2023-03-10T01:09:42.800Z,74.50
2023-03-10T01:12:09.850Z,74.50
2023-03-10T01:14:37.156Z,74.40
2023-03-10T01:17:05.426Z,74.30
2023-03-10T01:19:32.485Z,74.20
2023-03-10T01:22:01.504Z,74.10
2023-03-10T01:24:28.453Z,74.10
2023-03-10T01:26:55.441Z,74.00
2023-03-10T01:29:22.422Z,73.80
2023-03-10T01:31:49.417Z,73.70
2023-03-10T01:34:16.413Z,73.70
2023-03-10T01:36:43.429Z,73.70
2023-03-10T01:39:10.405Z,73.60
2023-03-10T01:41:41.310Z,73.60
2023-03-10T01:44:17.049Z,73.60
2023-03-10T01:46:50.034Z,73.60
2023-03-10T01:49:26.541Z,73.50
2023-03-10T01:52:00.151Z,73.40
2023-03-10T01:54:44.727Z,73.40
2023-03-10T01:57:13.496Z,73.20
2023-03-10T01:59:41.207Z,73.10
2023-03-10T02:02:09.482Z,73.80
2023-03-10T02:04:45.605Z,72.90
2023-03-10T02:07:14.239Z,73.00
2023-03-10T02:09:44.712Z,72.90
2023-03-10T02:12:15.044Z,72.90
2023-03-10T02:14:46.766Z,72.90
2023-03-10T02:17:19.513Z,72.90
2023-03-10T02:20:05.304Z,72.90
2023-03-10T02:22:32.903Z,73.10
2023-03-10T02:25:38.841Z,73.20
2023-03-10T02:28:06.801Z,73.60
2023-03-10T02:30:40.147Z,73.60
2023-03-10T02:33:13.953Z,73.70
2023-03-10T02:35:41.075Z,73.70
2023-03-10T02:38:12.527Z,73.80
2023-03-10T02:40:46.660Z,73.90
2023-03-10T02:43:20.480Z,73.90
2023-03-10T02:45:51.977Z,74.00
2023-03-10T02:48:28.184Z,74.20
2023-03-10T02:50:57.356Z,74.40
2023-03-10T02:53:26.822Z,74.30
2023-03-10T02:55:55.376Z,74.40
2023-03-10T02:58:26.414Z,74.40
2023-03-10T03:00:53.383Z,74.50
2023-03-10T03:03:22.252Z,74.50
2023-03-10T03:05:49.978Z,74.60
2023-03-10T03:08:19.012Z,74.60
2023-03-10T03:10:46.055Z,74.60
2023-03-10T03:13:13.736Z,74.60
2023-03-10T03:15:41.350Z,74.70
2023-03-10T03:18:09.473Z,74.90
2023-03-10T03:20:40.871Z,75.00
2023-03-10T03:23:08.918Z,75.00
2023-03-10T03:25:39.062Z,75.00
2023-03-10T03:28:08.133Z,75.10
2023-03-10T03:30:36.265Z,75.10
2023-03-10T03:33:06.060Z,75.00
2023-03-10T03:35:35.597Z,75.00
2023-03-10T03:38:04.117Z,74.90
2023-03-10T03:40:33.626Z,74.70
2023-03-10T03:43:02.183Z,74.60
2023-03-10T03:45:32.230Z,74.50
2023-03-10T03:48:00.556Z,74.40
2023-03-10T03:50:30.219Z,74.30
2023-03-10T03:53:03.406Z,74.20
2023-03-10T03:55:31.532Z,74.10
2023-03-10T03:57:59.255Z,74.10
2023-03-10T04:00:26.502Z,74.10
2023-03-10T04:03:04.445Z,74.10
2023-03-10T04:05:33.344Z,74.00
2023-03-10T04:08:01.233Z,74.00
2023-03-10T04:10:30.087Z,74.10
2023-03-10T04:12:57.573Z,74.10
2023-03-10T04:15:26.043Z,74.20
2023-03-10T04:17:53.262Z,74.30
2023-03-10T04:20:20.720Z,74.30
2023-03-10T04:22:50.217Z,74.50
2023-03-10T04:25:19.281Z,74.50
2023-03-10T04:27:46.892Z,74.60
2023-03-10T04:30:15.169Z,75.40
2023-03-10T04:32:48.736Z,74.70
2023-03-10T04:35:16.819Z,74.80
2023-03-10T04:37:44.942Z,74.80
2023-03-10T04:40:14.629Z,74.70
2023-03-10T04:42:42.282Z,74.60
2023-03-10T04:45:10.309Z,74.60
2023-03-10T04:47:38.314Z,74.70
2023-03-10T04:50:06.640Z,74.80
2023-03-10T04:52:35.062Z,74.90
2023-03-10T04:55:03.033Z,75.00
2023-03-10T04:57:30.005Z,75.00
2023-03-10T04:59:57.038Z,75.10
2023-03-10T05:02:24.102Z,75.10
2023-03-10T05:04:51.837Z,75.10
2023-03-10T05:07:21.412Z,75.30
2023-03-10T05:09:49.954Z,75.40
2023-03-10T05:12:17.179Z,75.50
2023-03-10T05:14:44.420Z,75.70
2023-03-10T05:17:11.920Z,75.90
2023-03-10T05:19:39.638Z,76.00
2023-03-10T05:22:08.033Z,76.20
2023-03-10T05:24:36.965Z,76.40
2023-03-10T05:27:04.102Z,76.50
2023-03-10T05:29:31.796Z,76.70
2023-03-10T05:32:11.458Z,76.90
2023-03-10T05:34:40.542Z,77.40
2023-03-10T05:37:07.480Z,77.30
2023-03-10T05:39:34.662Z,77.60
2023-03-10T05:42:06.230Z,77.70
2023-03-10T05:44:34.965Z,78.00
2023-03-10T05:47:04.840Z,78.10
2023-03-10T05:49:32.310Z,78.10
2023-03-10T05:51:59.683Z,78.20
2023-03-10T05:54:27.421Z,78.20
2023-03-10T05:56:54.479Z,78.20
2023-03-10T05:59:25.898Z,78.30
2023-03-10T06:01:53.990Z,78.40
2023-03-10T06:04:21.186Z,78.30
2023-03-10T06:06:48.999Z,78.40
2023-03-10T06:09:16.092Z,78.50
2023-03-10T06:11:43.076Z,78.60
2023-03-10T06:14:10.101Z,78.70
2023-03-10T06:16:37.055Z,78.90
2023-03-10T06:19:04.035Z,79.10
2023-03-10T06:21:30.964Z,79.20
2023-03-10T06:23:59.160Z,79.10
2023-03-10T06:26:26.101Z,79.00
2023-03-10T06:28:53.039Z,79.00
2023-03-10T06:31:24.528Z,78.80
2023-03-10T06:33:52.272Z,78.80
2023-03-10T06:36:20.304Z,78.70
2023-03-10T06:38:47.730Z,78.50
2023-03-10T06:41:16.764Z,78.30
2023-03-10T06:43:44.184Z,78.20
2023-03-10T06:46:12.523Z,78.20
2023-03-10T06:48:40.484Z,78.30
2023-03-10T06:51:09.767Z,78.40
2023-03-10T06:53:37.343Z,78.40
2023-03-10T06:56:05.961Z,78.50
2023-03-10T06:58:34.616Z,78.40
2023-03-10T07:01:01.958Z,78.30
2023-03-10T07:03:29.265Z,78.40
2023-03-10T07:05:59.900Z,78.30
2023-03-10T07:08:30.413Z,78.30
2023-03-10T07:10:58.227Z,78.20
2023-03-10T07:13:25.241Z,78.10
2023-03-10T07:15:52.160Z,78.00
2023-03-10T07:18:19.454Z,77.80
2023-03-10T07:20:48.176Z,77.80
2023-03-10T07:23:15.649Z,77.80
2023-03-10T07:25:42.636Z,77.80
2023-03-10T07:28:09.697Z,77.70
2023-03-10T07:30:38.925Z,77.60
2023-03-10T07:33:06.108Z,77.50
2023-03-10T07:35:35.525Z,77.30
2023-03-10T07:38:04.687Z,77.00
2023-03-10T07:40:31.764Z,76.70
2023-03-10T07:42:59.049Z,76.40
2023-03-10T07:45:28.169Z,76.10
2023-03-10T07:47:55.440Z,75.60
2023-03-10T07:50:22.451Z,75.30
2023-03-10T07:52:49.687Z,74.70
2023-03-10T07:55:17.116Z,73.90
2023-03-10T07:57:44.246Z,73.30
2023-03-10T08:00:11.842Z,72.50
2023-03-10T08:02:42.122Z,71.30
2023-03-10T08:05:10.640Z,70.20
2023-03-10T08:07:38.218Z,68.70
2023-03-10T08:10:06.061Z,66.80
2023-03-10T08:12:34.138Z,65.60
2023-03-10T08:15:01.190Z,64.80
2023-03-10T08:17:31.029Z,63.80
2023-03-10T08:19:58.732Z,62.80
2023-03-10T08:22:26.793Z,61.80
2023-03-10T08:24:54.398Z,61.20
2023-03-10T08:27:21.770Z,59.40
2023-03-10T08:29:48.720Z,58.40
2023-03-10T08:32:15.845Z,56.50
2023-03-10T08:34:44.252Z,55.60
2023-03-10T08:37:11.821Z,55.10
2023-03-10T08:39:38.993Z,54.30
2023-03-10T08:42:06.096Z,53.40
2023-03-10T08:44:33.155Z,52.70
2023-03-10T08:47:00.383Z,52.40
2023-03-10T08:49:27.451Z,52.30
2023-03-10T08:52:00.589Z,52.40
2023-03-10T08:54:28.556Z,52.50
2023-03-10T08:56:56.533Z,52.80
2023-03-10T08:59:23.494Z,53.30
2023-03-10T09:01:50.660Z,53.40
2023-03-10T09:04:17.927Z,54.60
2023-03-10T09:06:44.893Z,55.10
2023-03-10T09:09:12.509Z,55.60
2023-03-10T09:11:40.961Z,56.30
2023-03-10T09:14:10.565Z,57.20
2023-03-10T09:16:40.440Z,58.40
2023-03-10T09:19:07.763Z,59.40
2023-03-10T09:21:34.857Z,60.70
2023-03-10T09:24:04.638Z,61.30
2023-03-10T09:26:32.034Z,62.80
2023-03-10T09:29:01.080Z,62.40
2023-03-10T09:31:36.782Z,62.80
2023-03-10T09:34:04.609Z,62.90
2023-03-10T09:36:32.949Z,62.20
2023-03-10T09:39:00.811Z,59.90
2023-03-10T09:41:51.808Z,56.30
2023-03-10T09:44:43.554Z,53.20
2023-03-10T09:47:10.919Z,49.30
2023-03-10T09:50:07.106Z,45.30
2023-03-10T09:52:34.228Z,43.80
2023-03-10T09:55:06.517Z,45.60
2023-03-10T09:57:33.646Z,46.30
2023-03-10T10:00:11.082Z,47.30
2023-03-10T10:02:41.702Z,46.50
2023-03-10T10:05:34.943Z,44.30
2023-03-10T10:08:05.896Z,42.10
2023-03-10T10:10:36.595Z,40.40
2023-03-10T10:13:11.714Z,40.70
2023-03-10T10:15:39.788Z,39.00
2023-03-10T10:18:23.351Z,38.00
2023-03-10T10:21:00.397Z,37.40
2023-03-10T10:23:38.426Z,36.90
2023-03-10T10:26:15.472Z,35.30
2023-03-10T10:28:44.978Z,34.00
2023-03-10T10:31:14.358Z,33.00
2023-03-10T10:33:53.680Z,33.40
2023-03-10T10:36:22.457Z,33.70
2023-03-10T10:38:50.736Z,33.80
2023-03-10T10:41:35.598Z,33.80
2023-03-10T10:44:14.070Z,34.60
2023-03-10T10:46:50.881Z,34.70
2023-03-10T10:49:18.505Z,34.60
2023-03-10T10:51:55.704Z,35.40
2023-03-10T10:54:31.192Z,34.90
2023-03-10T10:56:59.114Z,34.40
2023-03-10T10:59:35.536Z,34.40
2023-03-10T11:02:04.412Z,34.40
2023-03-10T11:04:42.507Z,34.10
2023-03-10T11:07:11.358Z,33.40
2023-03-10T11:09:38.531Z,33.40
2023-03-10T11:12:24.338Z,33.70
2023-03-10T11:15:03.623Z,34.10
2023-03-10T11:17:33.819Z,36.90
2023-03-10T11:20:06.910Z,37.50
2023-03-10T11:22:34.005Z,38.00
2023-03-10T11:25:19.576Z,40.40
2023-03-10T11:27:49.427Z,43.00
2023-03-10T11:30:20.013Z,45.50
2023-03-10T11:32:59.390Z,45.90
2023-03-10T11:35:32.474Z,45.10
2023-03-10T11:38:10.608Z,45.70
2023-03-10T11:40:49.716Z,47.10
2023-03-10T11:43:19.451Z,48.40
2023-03-10T11:45:52.932Z,47.40
2023-03-10T11:48:25.978Z,47.40
2023-03-10T11:50:54.934Z,47.30
2023-03-10T11:53:27.925Z,46.00
2023-03-10T11:55:55.886Z,45.80
2023-03-10T11:58:46.049Z,47.10
2023-03-10T12:01:25.264Z,48.70
2023-03-10T12:04:18.361Z,50.00
2023-03-10T12:06:48.561Z,51.00
2023-03-10T12:09:18.258Z,51.40
2023-03-10T12:11:45.334Z,48.80
2023-03-10T12:14:13.798Z,46.20
2023-03-10T12:16:43.190Z,42.60
2023-03-10T12:19:10.200Z,41.80
2023-03-10T12:21:37.100Z,40.70
2023-03-10T12:24:07.538Z,38.90
2023-03-10T12:26:37.449Z,38.00
2023-03-10T12:29:24.605Z,38.70
2023-03-10T12:31:52.679Z,37.70
2023-03-10T12:34:23.468Z,38.40
2023-03-10T12:36:54.580Z,37.80
2023-03-10T12:39:30.284Z,37.80
2023-03-10T12:42:01.564Z,37.40
2023-03-10T12:44:31.421Z,38.20
2023-03-10T12:47:14.035Z,40.10
2023-03-10T12:49:40.871Z,41.70
2023-03-10T12:52:07.772Z,42.70
2023-03-10T12:54:53.049Z,42.80
2023-03-10T12:57:38.670Z,43.40
2023-03-10T13:00:24.506Z,44.50
2023-03-10T13:02:56.853Z,43.40
2023-03-10T13:05:25.168Z,41.00
2023-03-10T13:07:54.385Z,41.30
2023-03-10T13:10:25.287Z,41.50
2023-03-10T13:12:58.777Z,41.50
2023-03-10T13:15:27.018Z,42.40
2023-03-10T13:17:56.850Z,41.90
2023-03-10T13:20:24.303Z,40.90
2023-03-10T13:22:55.532Z,39.70
2023-03-10T13:25:22.407Z,39.90
2023-03-10T13:27:49.334Z,41.70
2023-03-10T13:30:16.462Z,42.00
2023-03-10T13:32:51.701Z,40.70
2023-03-10T13:35:24.481Z,40.90
2023-03-10T13:38:16.215Z,41.70
2023-03-10T13:40:47.189Z,40.80
2023-03-10T13:43:29.717Z,40.40
2023-03-10T13:45:57.541Z,42.40
2023-03-10T13:48:26.130Z,43.30
2023-03-10T13:51:03.989Z,43.50
2023-03-10T13:53:31.498Z,43.20
2023-03-10T13:55:58.616Z,42.80
2023-03-10T13:58:25.734Z,43.00
2023-03-10T14:00:56.329Z,43.60
2023-03-10T14:03:23.303Z,44.30
2023-03-10T14:05:50.125Z,44.80
2023-03-10T14:08:32.449Z,45.70
2023-03-10T14:11:18.226Z,46.80
2023-03-10T14:13:45.195Z,47.70
2023-03-10T14:16:12.733Z,48.70
2023-03-10T14:18:45.962Z,49.20
2023-03-10T14:21:26.254Z,48.90
2023-03-10T14:23:53.659Z,49.40
2023-03-10T14:26:20.556Z,48.90
2023-03-10T14:28:47.450Z,47.90
2023-03-10T14:31:21.823Z,46.90
2023-03-10T14:33:49.160Z,47.20
2023-03-10T14:36:16.081Z,47.20
2023-03-10T14:38:47.075Z,46.30
2023-03-10T14:41:17.508Z,45.10
2023-03-10T14:43:45.097Z,43.80
2023-03-10T14:46:13.109Z,43.30
2023-03-10T14:48:41.982Z,43.00
2023-03-10T14:51:14.532Z,42.90
2023-03-10T14:53:48.108Z,42.70
2023-03-10T14:56:17.515Z,42.60
2023-03-10T14:58:49.318Z,42.80
2023-03-10T15:01:18.070Z,42.60
2023-03-10T15:03:45.619Z,42.50
2023-03-10T15:06:13.359Z,42.30
2023-03-10T15:08:41.029Z,42.00
2023-03-10T15:11:09.048Z,42.10
2023-03-10T15:13:37.997Z,41.20
2023-03-10T15:16:05.409Z,41.80
2023-03-10T15:18:32.410Z,42.50
2023-03-10T15:21:00.475Z,42.70
2023-03-10T15:23:29.800Z,42.80
2023-03-10T15:25:58.079Z,42.70
2023-03-10T15:28:25.620Z,43.00
2023-03-10T15:30:56.106Z,43.50
2023-03-10T15:33:23.084Z,43.90
2023-03-10T15:35:50.107Z,44.40
2023-03-10T15:38:17.062Z,45.10
2023-03-10T15:40:45.053Z,45.60
2023-03-10T15:43:15.426Z,46.00
2023-03-10T15:45:46.494Z,46.20
2023-03-10T15:48:19.628Z,46.50
2023-03-10T15:50:47.511Z,46.90
2023-03-10T15:53:15.492Z,47.50
2023-03-10T15:55:46.496Z,48.30
2023-03-10T15:58:18.081Z,49.10
2023-03-10T16:00:48.391Z,49.90
2023-03-10T16:03:18.156Z,50.90
2023-03-10T16:05:51.311Z,51.50
2023-03-10T16:08:19.320Z,52.20
2023-03-10T16:10:53.527Z,53.00
2023-03-10T16:13:21.185Z,53.20
2023-03-10T16:15:48.026Z,53.70
2023-03-10T16:18:15.836Z,54.50
2023-03-10T16:20:43.014Z,54.50
2023-03-10T16:23:10.094Z,54.80
2023-03-10T16:25:37.129Z,55.50
2023-03-10T16:28:04.358Z,55.80
2023-03-10T16:30:31.347Z,57.10
2023-03-10T16:33:01.594Z,56.80
2023-03-10T16:35:30.154Z,57.20
2023-03-10T16:38:00.515Z,57.30
2023-03-10T16:40:27.493Z,57.60
2023-03-10T16:42:54.396Z,57.90
2023-03-10T16:45:21.456Z,58.20
2023-03-10T16:47:49.274Z,58.80
2023-03-10T16:50:16.662Z,58.90
2023-03-10T16:52:44.118Z,59.40
2023-03-10T16:55:18.883Z,59.40
2023-03-10T16:57:46.210Z,59.70
2023-03-10T17:00:15.042Z,60.20
2023-03-10T17:02:43.019Z,60.40
2023-03-10T17:05:10.352Z,60.70
2023-03-10T17:07:53.352Z,60.80
2023-03-10T17:10:22.478Z,61.00
2023-03-10T17:12:49.497Z,62.20
2023-03-10T17:15:16.527Z,61.40
2023-03-10T17:17:43.502Z,62.10
2023-03-10T17:20:10.987Z,61.90
2023-03-10T17:22:39.073Z,62.20
2023-03-10T17:25:06.579Z,62.40
2023-03-10T17:27:33.501Z,62.50
2023-03-10T17:30:00.664Z,63.50
2023-03-10T17:32:28.423Z,62.90
2023-03-10T17:34:55.530Z,63.10
2023-03-10T17:37:22.611Z,63.40
2023-03-10T17:39:49.646Z,63.60
2023-03-10T17:42:16.728Z,63.80
2023-03-10T17:44:43.667Z,64.10
2023-03-10T17:47:12.311Z,64.40
2023-03-10T17:49:41.047Z,64.60
2023-03-10T17:52:08.302Z,64.70
2023-03-10T17:54:35.358Z,64.90
2023-03-10T17:57:02.445Z,64.90
2023-03-10T17:59:31.254Z,65.20
2023-03-10T18:01:58.931Z,65.30
2023-03-10T18:04:29.951Z,65.20
2023-03-10T18:06:57.439Z,65.30
2023-03-10T18:09:24.342Z,65.30
2023-03-10T18:11:51.308Z,65.40
2023-03-10T18:14:18.289Z,65.70
2023-03-10T18:16:45.268Z,66.00
2023-03-10T18:19:12.601Z,66.30
2023-03-10T18:21:39.757Z,66.50
2023-03-10T18:24:08.351Z,66.70
2023-03-10T18:26:37.001Z,67.00
2023-03-10T18:29:05.036Z,67.10
2023-03-10T18:31:34.479Z,67.30
2023-03-10T18:34:01.972Z,67.40
2023-03-10T18:36:30.087Z,67.50
2023-03-10T18:38:57.621Z,67.70
2023-03-10T18:41:27.435Z,67.60
2023-03-10T18:43:54.377Z,67.70
2023-03-10T18:46:22.505Z,67.70
2023-03-10T18:48:55.431Z,67.90
2023-03-10T18:51:27.802Z,67.90
2023-03-10T18:53:55.322Z,68.00
2023-03-10T18:56:25.762Z,68.00
2023-03-10T18:58:53.682Z,68.20
2023-03-10T19:01:20.756Z,68.30
2023-03-10T19:03:47.762Z,69.30
2023-03-10T19:06:14.798Z,68.70
2023-03-10T19:08:41.927Z,68.80
2023-03-10T19:11:09.274Z,68.90
2023-03-10T19:13:40.421Z,69.10
2023-03-10T19:16:09.829Z,69.20
2023-03-10T19:18:37.323Z,69.20
2023-03-10T19:21:04.689Z,69.20
2023-03-10T19:23:33.979Z,69.40
2023-03-10T19:26:01.063Z,69.40
2023-03-10T19:28:38.327Z,69.30
2023-03-10T19:31:10.683Z,69.30
2023-03-10T19:33:39.851Z,69.30
2023-03-10T19:36:11.806Z,69.20
2023-03-10T19:38:39.650Z,69.20
2023-03-10T19:41:11.150Z,69.20
2023-03-10T19:43:38.161Z,69.10
2023-03-10T19:46:07.985Z,69.20
2023-03-10T19:48:35.692Z,69.30
2023-03-10T19:51:05.601Z,69.20
2023-03-10T19:53:33.718Z,70.10
2023-03-10T19:56:07.857Z,69.40
2023-03-10T19:58:35.004Z,69.30
2023-03-10T20:01:02.274Z,69.30
2023-03-10T20:03:31.905Z,69.30
2023-03-10T20:05:59.079Z,69.40
2023-03-10T20:08:26.252Z,69.40
2023-03-10T20:10:53.324Z,69.30
2023-03-10T20:13:21.326Z,69.40
2023-03-10T20:15:48.750Z,69.50
2023-03-10T20:18:18.588Z,69.50
2023-03-10T20:20:45.796Z,69.40
2023-03-10T20:23:12.919Z,69.40
2023-03-10T20:25:41.310Z,69.60
2023-03-10T20:28:09.332Z,69.50
2023-03-10T20:30:37.498Z,69.40
2023-03-10T20:33:04.542Z,69.40
2023-03-10T20:35:33.737Z,69.20
2023-03-10T20:38:02.073Z,69.20
2023-03-10T20:40:29.508Z,69.10
2023-03-10T20:42:59.745Z,69.10
2023-03-10T20:45:27.362Z,69.10
2023-03-10T20:47:54.970Z,68.90
2023-03-10T20:50:22.005Z,68.90
2023-03-10T20:52:49.875Z,68.70
2023-03-10T20:55:23.371Z,68.00
2023-03-10T20:57:52.278Z,66.70
2023-03-10T21:00:22.305Z,65.60
2023-03-10T21:02:52.653Z,65.20
2023-03-10T21:05:21.074Z,64.90
2023-03-10T21:07:48.224Z,64.80
2023-03-10T21:10:17.038Z,64.70
2023-03-10T21:12:44.696Z,64.70
2023-03-10T21:15:13.997Z,64.70
2023-03-10T21:17:41.534Z,64.70
2023-03-10T21:20:09.192Z,64.60
2023-03-10T21:22:38.377Z,64.40
2023-03-10T21:25:07.940Z,63.80
2023-03-10T21:27:36.381Z,63.40
2023-03-10T21:30:07.978Z,62.90
2023-03-10T21:32:35.123Z,62.80
2023-03-10T21:35:02.551Z,62.30
2023-03-10T21:37:29.969Z,61.60
2023-03-10T21:39:58.011Z,61.50
2023-03-10T21:42:25.003Z,61.20
2023-03-10T21:44:54.546Z,60.90
2023-03-10T21:47:21.537Z,60.40
2023-03-10T21:49:48.552Z,60.30
2023-03-10T21:52:15.559Z,60.10
2023-03-10T21:54:43.506Z,60.10
2023-03-10T21:57:10.716Z,60.20
2023-03-10T21:59:38.630Z,60.50
2023-03-10T22:02:05.694Z,61.10
2023-03-10T22:04:33.121Z,61.40
2023-03-10T22:07:00.783Z,61.50
2023-03-10T22:09:28.485Z,61.20
2023-03-10T22:11:55.502Z,60.90
2023-03-10T22:14:24.430Z,60.70
2023-03-10T22:16:51.871Z,60.70
2023-03-10T22:19:19.719Z,60.90
2023-03-10T22:21:46.601Z,60.80
2023-03-10T22:24:13.981Z,60.80
2023-03-10T22:26:40.977Z,60.90
2023-03-10T22:29:07.951Z,61.00
2023-03-10T22:31:35.277Z,60.90
2023-03-10T22:34:02.201Z,60.70
2023-03-10T22:36:29.125Z,60.60
2023-03-10T22:38:56.158Z,60.20
2023-03-10T22:41:23.286Z,60.40
2023-03-10T22:43:51.731Z,60.50
2023-03-10T22:46:18.755Z,60.50
2023-03-10T22:48:45.941Z,60.80
2023-03-10T22:51:16.746Z,60.90
2023-03-10T22:53:47.068Z,61.10
2023-03-10T22:56:14.101Z,61.40
2023-03-10T22:58:41.192Z,61.70
2023-03-10T23:01:08.359Z,62.10
2023-03-10T23:03:36.040Z,62.50
2023-03-10T23:06:06.630Z,62.80
2023-03-10T23:08:37.587Z,62.90
2023-03-10T23:11:12.901Z,62.90
2023-03-10T23:13:40.255Z,63.00
2023-03-10T23:16:07.966Z,62.90
2023-03-10T23:18:35.021Z,62.90
2023-03-10T23:21:02.717Z,62.80
2023-03-10T23:23:29.728Z,62.90
2023-03-10T23:25:56.766Z,62.80
2023-03-10T23:28:24.023Z,62.70
2023-03-10T23:30:51.341Z,62.50
2023-03-10T23:33:21.933Z,62.10
2023-03-10T23:35:55.279Z,61.50
2023-03-10T23:38:23.985Z,61.20
2023-03-10T23:40:51.738Z,60.80
2023-03-10T23:43:18.724Z,60.60
2023-03-10T23:45:46.034Z,60.50
2023-03-10T23:48:16.172Z,60.40
2023-03-10T23:50:44.751Z,60.40
2023-03-10T23:53:13.577Z,60.50
2023-03-10T23:55:43.194Z,60.50
2023-03-10T23:58:11.036Z,60.50
